createdAt,value
2023-05-03T00:04:19.579Z,62.14
2023-05-03T00:09:26.975Z,61.95
2023-05-03T00:14:34.711Z,61.61
2023-05-03T00:19:42.968Z,60.81
2023-05-03T00:24:52.071Z,60.06
2023-05-03T00:29:59.867Z,59.00
2023-05-03T00:35:08.293Z,58.92
2023-05-03T00:40:19.294Z,59.31
2023-05-03T00:45:26.673Z,59.16
2023-05-03T00:50:34.411Z,59.01
2023-05-03T00:55:42.493Z,58.99
2023-05-03T01:00:50.775Z,59.09
2023-05-03T01:06:10.453Z,59.57
2023-05-03T01:11:26.004Z,60.08
2023-05-03T01:16:38.998Z,59.91
2023-05-03T01:21:50.264Z,60.07
2023-05-03T01:26:57.931Z,60.09
2023-05-03T01:32:08.812Z,60.44
2023-05-03T01:37:18.353Z,61.02
2023-05-03T01:42:27.855Z,61.17
2023-05-03T01:47:35.546Z,61.13
2023-05-03T01:52:42.981Z,61.11
2023-05-03T01:57:50.436Z,61.25
2023-05-03T02:02:59.122Z,61.60
2023-05-03T02:08:06.490Z,61.70
2023-05-03T02:13:15.442Z,61.68
2023-05-03T02:18:23.053Z,61.71
2023-05-03T02:23:31.840Z,61.75
2023-05-03T02:28:39.122Z,61.91
2023-05-03T02:33:46.494Z,63.96
2023-05-03T02:38:54.247Z,64.41
2023-05-03T02:44:01.491Z,63.77
2023-05-03T02:49:08.833Z,63.53
2023-05-03T02:54:16.385Z,63.54
2023-05-03T02:59:24.878Z,63.28
2023-05-03T03:04:32.129Z,62.79
2023-05-03T03:09:40.064Z,62.47
2023-05-03T03:14:47.821Z,62.40
2023-05-03T03:19:55.850Z,62.28
2023-05-03T03:25:03.233Z,62.38
2023-05-03T03:30:12.878Z,62.54
2023-05-03T03:35:26.603Z,62.16
2023-05-03T03:40:34.490Z,62.58
2023-05-03T03:45:42.258Z,63.00
2023-05-03T03:50:50.532Z,63.42
2023-05-03T03:55:58.728Z,63.88
2023-05-03T04:01:06.860Z,64.27
2023-05-03T04:06:14.470Z,64.69
2023-05-03T04:11:23.249Z,65.04
2023-05-03T04:16:34.750Z,65.52
2023-05-03T04:21:44.006Z,65.99
2023-05-03T04:26:52.225Z,66.68
2023-05-03T04:32:05.513Z,67.31
2023-05-03T04:37:14.037Z,67.62
2023-05-03T04:42:21.760Z,67.84
2023-05-03T04:47:29.759Z,67.98
2023-05-03T04:52:37.448Z,68.09
2023-05-03T04:57:45.260Z,68.35
2023-05-03T05:02:54.253Z,68.59
2023-05-03T05:08:02.163Z,68.58
2023-05-03T05:13:15.225Z,68.60
2023-05-03T05:18:23.058Z,68.51
2023-05-03T05:23:31.824Z,68.66
2023-05-03T05:28:39.347Z,68.70
2023-05-03T05:33:47.117Z,68.54
2023-05-03T05:38:54.977Z,68.27
2023-05-03T05:44:03.498Z,67.89
2023-05-03T05:49:11.266Z,67.55
2023-05-03T05:54:19.460Z,67.38
2023-05-03T05:59:27.579Z,67.17
2023-05-03T06:04:35.675Z,66.59
2023-05-03T06:09:43.228Z,65.91
2023-05-03T06:15:01.383Z,65.21
2023-05-03T06:20:14.405Z,64.58
2023-05-03T06:25:22.980Z,64.16
2023-05-03T06:30:32.015Z,63.45
2023-05-03T06:35:47.587Z,62.89
2023-05-03T06:40:56.271Z,62.53
2023-05-03T06:46:04.123Z,61.90
2023-05-03T06:51:11.671Z,61.39
2023-05-03T06:56:19.225Z,60.60
2023-05-03T07:01:26.691Z,59.11
2023-05-03T07:06:44.284Z,58.27
2023-05-03T07:12:03.945Z,57.90
2023-05-03T07:17:11.921Z,57.13
2023-05-03T07:22:21.188Z,57.07
2023-05-03T07:27:28.947Z,57.19
2023-05-03T07:32:36.645Z,57.48
2023-05-03T07:37:45.280Z,57.90
2023-05-03T07:42:52.771Z,58.12
2023-05-03T07:48:00.418Z,58.16
2023-05-03T07:53:07.874Z,57.58
2023-05-03T07:58:15.533Z,57.24
2023-05-03T08:03:22.982Z,57.33
2023-05-03T08:08:32.083Z,56.56
2023-05-03T08:13:39.275Z,56.14
2023-05-03T08:18:47.464Z,55.76
2023-05-03T08:23:55.112Z,55.24
2023-05-03T08:29:03.899Z,55.24
2023-05-03T08:34:11.801Z,54.64
2023-05-03T08:39:19.507Z,54.09
2023-05-03T08:44:30.479Z,53.43
2023-05-03T08:49:39.784Z,52.77
2023-05-03T08:54:47.487Z,52.79
2023-05-03T08:59:58.917Z,52.48
2023-05-03T09:05:06.735Z,51.55
2023-05-03T09:10:26.142Z,51.11
2023-05-03T09:15:33.922Z,51.02
2023-05-03T09:20:42.910Z,50.81
2023-05-03T09:25:51.936Z,50.49
2023-05-03T09:31:11.490Z,50.78
2023-05-03T09:36:19.915Z,50.75
2023-05-03T09:41:33.812Z,50.64
2023-05-03T09:46:41.063Z,50.29
2023-05-03T09:51:48.607Z,49.27
2023-05-03T09:56:58.002Z,48.83
2023-05-03T10:02:08.043Z,48.79
2023-05-03T10:07:19.263Z,48.20
2023-05-03T10:12:27.515Z,47.19
2023-05-03T10:23:13.023Z,47.58
2023-05-03T10:28:20.291Z,47.42
2023-05-03T10:33:35.617Z,47.08
2023-05-03T10:38:44.461Z,47.18
2023-05-03T10:43:51.716Z,46.94
2023-05-03T10:49:26.748Z,46.63
2023-05-03T10:54:34.070Z,46.15
2023-05-03T10:59:53.782Z,45.88
2023-05-03T11:05:09.567Z,46.12
2023-05-03T11:10:23.584Z,46.35
2023-05-03T11:15:31.369Z,46.32
2023-05-03T11:20:38.721Z,45.78
2023-05-03T11:25:46.116Z,45.04
2023-05-03T11:30:53.550Z,44.86
2023-05-03T11:36:04.004Z,44.96
2023-05-03T11:41:20.887Z,44.69
2023-05-03T11:46:30.542Z,44.26
2023-05-03T11:51:38.785Z,43.59
2023-05-03T11:56:46.640Z,44.26
2023-05-03T12:01:57.295Z,43.81
2023-05-03T12:07:06.217Z,43.76
2023-05-03T12:12:24.727Z,43.64
2023-05-03T12:17:44.318Z,43.14
2023-05-03T12:22:57.749Z,42.67
2023-05-03T12:28:19.633Z,42.42
2023-05-03T12:33:28.488Z,42.64
2023-05-03T12:38:37.585Z,42.83
2023-05-03T12:43:45.268Z,43.17
2023-05-03T12:48:54.195Z,42.99
2023-05-03T12:54:02.186Z,42.81
2023-05-03T13:04:43.259Z,41.92
2023-05-03T13:14:58.392Z,42.01
2023-05-03T13:20:08.611Z,41.83
2023-05-03T13:25:16.370Z,41.70
2023-05-03T13:30:24.920Z,41.66
2023-05-03T13:35:32.030Z,41.85
2023-05-03T13:40:39.466Z,41.60
2023-05-03T13:45:46.602Z,41.38
2023-05-03T13:50:54.008Z,41.11
2023-05-03T13:56:01.361Z,40.88
2023-05-03T14:01:08.784Z,40.98
2023-05-03T14:06:15.897Z,40.97
2023-05-03T14:11:24.998Z,40.91
2023-05-03T14:16:40.707Z,40.60
2023-05-03T14:21:50.216Z,40.28
2023-05-03T14:26:57.371Z,39.96
2023-05-03T14:32:04.614Z,39.80
2023-05-03T14:37:11.734Z,40.18
2023-05-03T14:42:19.249Z,40.49
2023-05-03T14:47:26.773Z,40.38
2023-05-03T14:52:34.588Z,39.96
2023-05-03T14:57:41.772Z,39.81
2023-05-03T15:02:49.687Z,39.94
2023-05-03T15:07:57.197Z,39.94
2023-05-03T15:13:04.831Z,39.88
2023-05-03T15:18:14.826Z,39.87
2023-05-03T15:23:22.132Z,39.77
2023-05-03T15:28:29.420Z,39.73
2023-05-03T15:33:43.488Z,39.91
2023-05-03T15:38:51.316Z,40.08
2023-05-03T15:44:00.029Z,40.11
2023-05-03T15:49:07.268Z,40.10
2023-05-03T15:54:14.372Z,40.11
2023-05-03T15:59:21.766Z,40.11
2023-05-03T16:04:29.153Z,40.15
2023-05-03T16:09:36.428Z,40.16
2023-05-03T16:14:43.851Z,40.18
2023-05-03T16:19:51.096Z,39.80
2023-05-03T16:24:58.553Z,39.53
2023-05-03T16:30:06.259Z,39.61
2023-05-03T16:35:14.095Z,39.59
2023-05-03T16:40:21.735Z,39.59
2023-05-03T16:45:29.654Z,39.60
2023-05-03T16:50:37.623Z,39.65
2023-05-03T16:55:45.206Z,39.68
2023-05-03T17:00:52.532Z,39.56
2023-05-03T17:06:01.510Z,39.62
2023-05-03T17:11:13.686Z,39.55
2023-05-03T17:16:23.062Z,39.41
2023-05-03T17:21:30.462Z,39.46
2023-05-03T17:26:37.654Z,39.70
2023-05-03T17:31:44.921Z,39.98
2023-05-03T17:36:52.235Z,40.14
2023-05-03T17:41:59.420Z,39.96
2023-05-03T17:47:07.256Z,39.72
2023-05-03T17:52:14.475Z,39.63
2023-05-03T17:57:22.387Z,39.43
2023-05-03T18:02:31.425Z,39.21
2023-05-03T18:07:39.087Z,39.15
2023-05-03T18:12:46.350Z,39.27
2023-05-03T18:17:54.187Z,39.51
2023-05-03T18:23:01.457Z,39.85
2023-05-03T18:28:08.876Z,40.24
2023-05-03T18:33:16.204Z,40.48
2023-05-03T18:43:55.041Z,41.49
2023-05-03T18:49:04.058Z,41.73
2023-05-03T18:54:11.448Z,41.89
2023-05-03T18:59:18.830Z,42.29
2023-05-03T19:04:26.140Z,42.55
2023-05-03T19:09:33.524Z,43.00
2023-05-03T19:14:42.652Z,42.95
2023-05-03T19:19:49.856Z,43.03
2023-05-03T19:24:58.423Z,43.11
2023-05-03T19:30:06.183Z,43.46
2023-05-03T19:35:15.176Z,43.75
2023-05-03T19:40:25.086Z,44.00
2023-05-03T19:45:32.461Z,44.43
2023-05-03T19:50:40.630Z,45.09
2023-05-03T19:55:58.518Z,45.41
2023-05-03T20:01:06.717Z,46.14
2023-05-03T20:06:14.014Z,47.06
2023-05-03T20:11:21.793Z,47.37
2023-05-03T20:16:33.052Z,47.44
2023-05-03T20:21:40.369Z,47.30
2023-05-03T20:26:47.557Z,47.53
2023-05-03T20:31:56.218Z,47.74
2023-05-03T20:37:03.918Z,48.22
2023-05-03T20:42:11.274Z,48.73
2023-05-03T20:47:18.446Z,49.28
2023-05-03T20:52:25.913Z,49.56
2023-05-03T20:57:32.998Z,50.04
2023-05-03T21:02:40.374Z,50.47
2023-05-03T21:07:47.456Z,50.75
2023-05-03T21:12:54.829Z,50.81
2023-05-03T21:18:06.882Z,50.75
2023-05-03T21:23:14.081Z,50.91
2023-05-03T21:28:21.277Z,51.32
2023-05-03T21:33:28.718Z,51.85
2023-05-03T21:38:36.323Z,52.30
2023-05-03T21:43:43.466Z,52.30
2023-05-03T21:48:50.631Z,52.37
2023-05-03T21:53:58.148Z,52.66
2023-05-03T21:59:05.474Z,52.51
2023-05-03T22:04:12.503Z,52.84
2023-05-03T22:09:19.718Z,53.37
2023-05-03T22:14:26.964Z,53.64
2023-05-03T22:19:37.629Z,54.11
2023-05-03T22:24:44.794Z,54.70
2023-05-03T22:29:52.073Z,55.05
2023-05-03T22:34:59.273Z,55.38
2023-05-03T22:40:07.125Z,55.76
2023-05-03T22:45:15.098Z,56.03
2023-05-03T22:50:23.030Z,56.45
2023-05-03T22:55:30.671Z,56.69
2023-05-03T23:00:37.848Z,57.02
2023-05-03T23:05:44.969Z,57.33
2023-05-03T23:10:54.511Z,57.63
2023-05-03T23:16:01.669Z,57.86
2023-05-03T23:21:08.928Z,58.17
2023-05-03T23:26:16.140Z,58.46
2023-05-03T23:31:23.868Z,58.73
2023-05-03T23:36:31.792Z,59.08
2023-05-03T23:41:38.932Z,59.34
2023-05-03T23:46:46.263Z,59.65
2023-05-03T23:51:53.459Z,59.90
2023-05-03T23:57:01.819Z,60.05
